Time;durP1;ratioP1;P1;durP2;ratioP2;P2;SDS_P1;SDS_P2;PMS_P1;PMS_P2;Temp;Humidity;BMP_temperature;BMP_pressure;BME280_temperature;BME280_humidity;BME280_pressure;Samples;Min_cycle;Max_cycle;Signal;HPM_P1;HPM_P2
2022/04/06 00:00:14;;;;;;;69.25;35.85;;;7.60;99.90;;;;;;4974172;28;20500;-75
2022/04/06 00:02:40;;;;;;;47.15;27.45;;;7.60;99.90;;;;;;4990564;28;20444;-73
2022/04/06 00:05:10;;;;;;;138.45;65.10;;;7.50;99.90;;;;;;4974311;28;20062;-73
2022/04/06 00:07:38;;;;;;;239.80;111.82;;;7.40;99.90;;;;;;4990144;28;20030;-73
2022/04/06 00:10:05;;;;;;;64.35;33.47;;;7.40;99.90;;;;;;4991761;28;20057;-73
2022/04/06 00:12:31;;;;;;;86.20;42.67;;;7.40;99.90;;;;;;4990852;28;20026;-74
2022/04/06 00:14:57;;;;;;;59.83;36.58;;;7.40;99.90;;;;;;4991642;28;20046;-75
2022/04/06 00:17:23;;;;;;;57.72;35.53;;;7.40;99.90;;;;;;4991361;28;20400;-74
2022/04/06 00:19:49;;;;;;;55.08;33.45;;;7.40;99.90;;;;;;4991498;28;20041;-74
2022/04/06 00:22:18;;;;;;;50.63;32.33;;;7.40;99.90;;;;;;4991644;28;20037;-75
2022/04/06 00:24:51;;;;;;;50.85;32.67;;;7.40;99.90;;;;;;4991454;28;20048;-74
2022/04/06 00:27:18;;;;;;;58.25;35.30;;;7.40;99.90;;;;;;4990351;28;20053;-73
2022/04/06 00:29:43;;;;;;;47.50;29.58;;;7.40;99.90;;;;;;4997678;28;20037;-73
2022/04/06 00:32:09;;;;;;;95.57;50.25;;;7.30;99.90;;;;;;5015179;28;20034;-74
2022/04/06 00:37:20;;;;;;;35.53;20.15;;;7.30;99.90;;;;;;5014890;28;20042;-73
2022/04/06 00:39:48;;;;;;;46.38;22.67;;;7.30;99.90;;;;;;5029679;28;20545;-75
2022/04/06 00:42:14;;;;;;;44.85;24.10;;;7.30;99.90;;;;;;5014794;28;20113;-74
2022/04/06 00:44:43;;;;;;;47.05;24.13;;;7.20;99.90;;;;;;5014787;28;20029;-73
2022/04/06 00:47:10;;;;;;;53.35;30.30;;;7.10;99.90;;;;;;5013060;28;20499;-72
2022/04/06 00:49:37;;;;;;;51.10;27.95;;;7.10;99.90;;;;;;5029946;28;20030;-73
2022/04/06 00:52:05;;;;;;;42.58;21.42;;;7.00;99.90;;;;;;5014426;28;20029;-72
2022/04/06 00:54:32;;;;;;;43.97;20.45;;;7.00;99.90;;;;;;5013477;28;20041;-72
2022/04/06 00:56:59;;;;;;;47.33;20.20;;;7.00;99.90;;;;;;5014559;28;20040;-72
2022/04/06 00:59:29;;;;;;;39.15;21.17;;;6.90;99.90;;;;;;5014673;28;20030;-72
2022/04/06 01:01:55;;;;;;;45.83;21.25;;;6.90;99.90;;;;;;5012241;28;20463;-73
2022/04/06 01:04:24;;;;;;;35.25;19.20;;;6.90;99.90;;;;;;5012932;28;20026;-73
2022/04/06 01:06:53;;;;;;;35.47;18.98;;;6.90;99.90;;;;;;5014133;28;20427;-73
2022/04/06 01:09:24;;;;;;;41.45;19.52;;;6.90;99.90;;;;;;4997454;28;20038;-73
2022/04/06 01:11:53;;;;;;;39.75;18.40;;;6.80;99.90;;;;;;5012705;28;20030;-73
2022/04/06 01:14:26;;;;;;;32.00;17.33;;;6.80;99.90;;;;;;5029363;28;20030;-73
2022/04/06 01:17:14;;;;;;;42.28;21.92;;;6.80;99.90;;;;;;5012850;28;20045;-73
2022/04/06 01:19:51;;;;;;;45.03;21.40;;;6.80;99.90;;;;;;4998188;28;20415;-73
2022/04/06 01:22:19;;;;;;;52.47;24.40;;;6.80;99.90;;;;;;5014051;28;20105;-72
2022/04/06 01:24:47;;;;;;;50.08;22.23;;;6.80;99.90;;;;;;5014181;28;20072;-73
2022/04/06 01:27:14;;;;;;;57.65;24.55;;;6.80;99.90;;;;;;5014127;28;20037;-71
2022/04/06 01:29:40;;;;;;;48.78;23.65;;;6.70;99.90;;;;;;5013904;28;20045;-72
2022/04/06 01:32:11;;;;;;;52.72;24.73;;;6.70;99.90;;;;;;5014031;28;20034;-73
2022/04/06 01:34:37;;;;;;;46.13;21.08;;;6.70;99.90;;;;;;5013830;28;20105;-74
2022/04/06 01:37:04;;;;;;;42.33;20.52;;;6.80;99.90;;;;;;5013986;28;20050;-73
2022/04/06 01:39:35;;;;;;;51.33;22.40;;;6.70;99.90;;;;;;5013803;28;20057;-69
2022/04/06 01:42:06;;;;;;;42.33;20.38;;;6.80;99.90;;;;;;5013483;28;20065;-73
2022/04/06 01:44:35;;;;;;;33.78;19.40;;;6.80;99.90;;;;;;5012048;28;20034;-73
2022/04/06 01:47:07;;;;;;;37.15;19.83;;;6.80;99.90;;;;;;5012139;28;20045;-70
2022/04/06 01:52:22;;;;;;;42.83;20.88;;;6.80;99.90;;;;;;5013613;28;20077;-73
2022/04/06 01:54:56;;;;;;;41.78;19.27;;;6.80;99.90;;;;;;5012320;28;20050;-72
2022/04/06 01:57:23;;;;;;;32.17;20.13;;;6.80;99.90;;;;;;5013254;28;20042;-74
2022/04/06 01:59:50;;;;;;;37.72;19.70;;;6.70;99.90;;;;;;5028555;28;20038;-72
2022/04/06 02:02:18;;;;;;;37.40;19.67;;;6.70;99.90;;;;;;5013891;28;20038;-73
2022/04/06 02:04:47;;;;;;;38.50;21.77;;;6.60;99.90;;;;;;4996337;28;20030;-74
2022/04/06 02:07:14;;;;;;;30.60;19.52;;;6.60;99.90;;;;;;5012886;28;20168;-73
2022/04/06 02:09:41;;;;;;;32.35;18.95;;;6.50;99.90;;;;;;5012885;28;20021;-73
2022/04/06 02:12:09;;;;;;;29.95;17.73;;;6.50;99.90;;;;;;5013024;28;20040;-72
2022/04/06 02:14:35;;;;;;;31.40;16.83;;;6.50;99.90;;;;;;4995693;28;20073;-73
2022/04/06 02:17:13;;;;;;;26.48;15.85;;;6.40;99.90;;;;;;5011284;28;20546;-73
2022/04/06 02:19:50;;;;;;;25.25;15.52;;;6.40;99.90;;;;;;5012002;28;20044;-73
2022/04/06 02:22:18;;;;;;;32.40;17.15;;;6.30;99.90;;;;;;5010457;28;20486;-74
2022/04/06 02:24:44;;;;;;;31.02;17.85;;;6.20;99.90;;;;;;5013294;28;20030;-76
2022/04/06 02:27:10;;;;;;;30.63;19.17;;;6.20;99.90;;;;;;5012649;28;20045;-73
2022/04/06 02:29:37;;;;;;;29.23;17.02;;;6.20;99.90;;;;;;5012371;28;20033;-74
2022/04/06 02:32:04;;;;;;;29.67;17.60;;;6.00;99.90;;;;;;5012187;28;20041;-73
2022/04/06 02:34:30;;;;;;;32.20;16.90;;;5.90;99.90;;;;;;5011334;28;20034;-72
2022/04/06 02:36:56;;;;;;;28.38;18.02;;;5.90;99.90;;;;;;5012550;28;20046;-72
2022/04/06 02:39:22;;;;;;;31.38;17.90;;;5.90;99.90;;;;;;5012423;28;20108;-73
2022/04/06 02:41:48;;;;;;;29.00;16.45;;;6.00;99.90;;;;;;5012493;28;20109;-72
2022/04/06 02:44:15;;;;;;;32.58;17.20;;;5.90;99.90;;;;;;5012158;28;20026;-73
2022/04/06 02:46:42;;;;;;;32.05;18.20;;;5.90;99.90;;;;;;5011999;28;20038;-73
2022/04/06 02:49:32;;;;;;;33.15;18.77;;;5.90;99.90;;;;;;5012350;28;20060;-73
2022/04/06 02:51:58;;;;;;;32.45;17.38;;;5.90;99.90;;;;;;5026485;28;20034;-71
2022/04/06 02:54:24;;;;;;;30.92;17.02;;;5.90;99.90;;;;;;5012406;28;20026;-71
2022/04/06 02:56:50;;;;;;;26.23;15.05;;;5.90;99.90;;;;;;5011271;28;20038;-73
2022/04/06 02:59:16;;;;;;;25.73;15.00;;;5.90;99.90;;;;;;5011955;28;20034;-73
2022/04/06 03:01:52;;;;;;;27.20;15.07;;;5.90;99.90;;;;;;5012174;28;20044;-72
2022/04/06 03:04:18;;;;;;;149.13;65.90;;;5.90;99.90;;;;;;5010365;28;20037;-73
2022/04/06 03:06:44;;;;;;;86.40;37.78;;;5.80;99.90;;;;;;5011645;28;20030;-74
2022/04/06 03:09:13;;;;;;;105.25;44.65;;;5.80;99.90;;;;;;5011969;28;20038;-72
2022/04/06 03:11:39;;;;;;;101.45;41.05;;;5.80;99.90;;;;;;5009705;28;20100;-74
2022/04/06 03:14:05;;;;;;;68.43;29.52;;;5.90;99.90;;;;;;5010852;28;20377;-73
2022/04/06 03:16:33;;;;;;;44.15;20.90;;;5.80;99.90;;;;;;5011764;28;20033;-74
2022/04/06 03:18:59;;;;;;;36.20;22.30;;;5.80;99.90;;;;;;5010339;28;20045;-72
2022/04/06 03:21:26;;;;;;;52.33;29.77;;;5.80;99.90;;;;;;5010285;28;20026;-72
2022/04/06 03:23:51;;;;;;;65.53;39.85;;;5.80;99.90;;;;;;5010369;28;20108;-73
2022/04/06 03:26:20;;;;;;;54.92;31.83;;;5.70;99.90;;;;;;5011730;28;20440;-72
2022/04/06 03:28:46;;;;;;;33.03;20.13;;;5.70;99.90;;;;;;5011017;28;20030;-72
2022/04/06 03:31:12;;;;;;;28.50;18.13;;;5.80;99.90;;;;;;5011605;28;20152;-72
2022/04/06 03:33:40;;;;;;;34.30;17.55;;;5.80;99.90;;;;;;5011301;28;20080;-73
2022/04/06 03:36:09;;;;;;;31.45;17.38;;;5.80;99.90;;;;;;5010307;28;20061;-72
2022/04/06 03:38:35;;;;;;;40.35;21.38;;;5.80;99.90;;;;;;5011380;28;20080;-72
2022/04/06 03:41:04;;;;;;;30.85;20.02;;;5.70;99.90;;;;;;5011412;28;20022;-72
2022/04/06 03:43:30;;;;;;;60.67;31.20;;;5.70;99.90;;;;;;5010584;28;20062;-71
2022/04/06 03:45:56;;;;;;;24.92;15.02;;;5.70;99.90;;;;;;5011282;28;20085;-71
2022/04/06 03:48:25;;;;;;;27.20;15.20;;;5.70;99.90;;;;;;5010595;28;20054;-73
2022/04/06 03:50:51;;;;;;;25.40;14.57;;;5.60;99.90;;;;;;5010669;28;20686;-71
2022/04/06 03:53:18;;;;;;;61.38;30.95;;;5.50;99.90;;;;;;5011190;28;20631;-74
2022/04/06 03:55:44;;;;;;;130.45;63.72;;;5.30;99.90;;;;;;5009962;28;20527;-73
2022/04/06 03:58:10;;;;;;;126.93;71.57;;;5.10;99.90;;;;;;5011041;28;20117;-73
2022/04/06 04:00:36;;;;;;;86.93;47.67;;;4.90;99.90;;;;;;5005654;28;20503;-73
2022/04/06 04:03:05;;;;;;;34.13;20.10;;;4.80;99.90;;;;;;5002374;28;20073;-73
2022/04/06 04:05:34;;;;;;;40.28;21.48;;;4.60;99.90;;;;;;5007419;28;20457;-73
2022/04/06 04:08:09;;;;;;;54.92;29.38;;;4.60;99.90;;;;;;5010596;28;20109;-74
2022/04/06 04:10:35;;;;;;;30.65;17.17;;;4.70;99.90;;;;;;5025639;28;20030;-74
2022/04/06 04:13:04;;;;;;;34.30;17.35;;;4.70;99.90;;;;;;5010461;28;20030;-72
2022/04/06 04:15:31;;;;;;;26.73;16.55;;;4.80;99.90;;;;;;5010615;28;20485;-73
2022/04/06 04:17:57;;;;;;;33.35;16.85;;;4.90;99.90;;;;;;5010328;28;20085;-73
2022/04/06 04:20:23;;;;;;;22.80;14.25;;;5.00;99.90;;;;;;5010650;28;20076;-74
2022/04/06 04:22:53;;;;;;;23.45;15.82;;;5.10;99.90;;;;;;5009240;28;20029;-73
2022/04/06 04:25:19;;;;;;;26.20;16.98;;;5.30;99.90;;;;;;5009396;28;20029;-72
2022/04/06 04:27:45;;;;;;;31.08;18.02;;;5.80;99.90;;;;;;5010227;28;20040;-75
2022/04/06 04:30:11;;;;;;;24.40;15.75;;;6.30;99.90;;;;;;5010659;28;20067;-72
2022/04/06 04:32:37;;;;;;;25.15;16.73;;;6.20;99.90;;;;;;5010765;28;20484;-73
2022/04/06 04:35:06;;;;;;;31.55;16.75;;;6.50;99.90;;;;;;5009208;28;20041;-75
2022/04/06 04:37:33;;;;;;;42.08;31.98;;;7.20;99.90;;;;;;5009715;28;20048;-75
2022/04/06 04:39:59;;;;;;;34.42;19.92;;;8.10;99.90;;;;;;5010477;28;20034;-74
2022/04/06 04:42:25;;;;;;;39.17;20.95;;;8.80;99.90;;;;;;5011200;28;20030;-75
2022/04/06 04:44:52;;;;;;;40.88;30.48;;;9.40;99.90;;;;;;5010272;28;20022;-74
2022/04/06 04:47:17;;;;;;;34.97;23.98;;;9.90;99.90;;;;;;5011378;28;20562;-75
2022/04/06 04:49:43;;;;;;;31.00;20.50;;;10.70;99.90;;;;;;5010471;28;20121;-74
2022/04/06 04:52:09;;;;;;;26.98;19.50;;;11.30;99.90;;;;;;5010541;28;20029;-73
2022/04/06 04:54:36;;;;;;;28.85;18.08;;;11.80;96.00;;;;;;5010658;28;20107;-74
2022/04/06 04:57:02;;;;;;;25.48;16.50;;;12.30;93.60;;;;;;5010312;28;20494;-73
2022/04/06 04:59:28;;;;;;;28.20;18.25;;;12.60;91.20;;;;;;5010531;28;20033;-75
2022/04/06 05:01:54;;;;;;;26.35;17.90;;;13.10;90.20;;;;;;5010207;28;20026;-75
2022/04/06 05:04:20;;;;;;;29.67;17.48;;;13.30;86.90;;;;;;5010666;28;20025;-75
2022/04/06 05:06:47;;;;;;;28.45;18.38;;;13.60;85.40;;;;;;5008930;28;20022;-75
2022/04/06 05:09:17;;;;;;;39.50;21.20;;;13.60;83.80;;;;;;5009556;28;20030;-74
2022/04/06 05:11:45;;;;;;;43.30;28.75;;;13.50;84.40;;;;;;5018760;28;20037;-74
2022/04/06 05:14:31;;;;;;;49.47;28.90;;;13.50;84.10;;;;;;5011853;28;20022;-75
2022/04/06 05:17:07;;;;;;;53.83;31.98;;;14.30;80.20;;;;;;4997375;28;20145;-75
2022/04/06 05:19:33;;;;;;;44.55;28.25;;;14.50;79.00;;;;;;4996652;28;20068;-75
2022/04/06 05:22:01;;;;;;;40.55;25.85;;;14.60;77.90;;;;;;5013688;28;20455;-75
2022/04/06 05:24:28;;;;;;;37.67;26.88;;;14.50;76.40;;;;;;5028749;28;20036;-75
2022/04/06 05:26:56;;;;;;;37.85;25.58;;;13.30;77.00;;;;;;5013592;28;20030;-71
2022/04/06 05:29:27;;;;;;;43.75;27.38;;;12.60;79.20;;;;;;5013734;28;20465;-74
2022/04/06 05:31:52;;;;;;;45.85;28.08;;;12.10;80.70;;;;;;5013676;28;20171;-71
2022/04/06 05:34:18;;;;;;;49.45;31.67;;;11.80;85.80;;;;;;5013768;28;20026;-75
2022/04/06 05:36:47;;;;;;;50.30;33.83;;;11.50;90.10;;;;;;5013600;28;20435;-74
2022/04/06 05:39:13;;;;;;;52.78;35.15;;;11.20;91.90;;;;;;5012540;28;20037;-74
2022/04/06 05:41:42;;;;;;;63.17;36.47;;;11.10;93.30;;;;;;5022889;28;20030;-74
2022/04/06 05:44:08;;;;;;;60.92;37.72;;;11.30;94.50;;;;;;5013297;28;20499;-74
2022/04/06 05:46:37;;;;;;;55.90;35.53;;;11.30;95.10;;;;;;5012729;28;20026;-74
2022/04/06 05:49:03;;;;;;;60.33;37.75;;;11.30;96.90;;;;;;5013531;28;20087;-74
2022/04/06 05:51:29;;;;;;;73.20;42.88;;;11.30;98.00;;;;;;5012194;28;20037;-74
2022/04/06 05:53:55;;;;;;;73.45;43.88;;;11.30;98.70;;;;;;5017696;28;20107;-74
2022/04/06 05:56:22;;;;;;;71.80;43.53;;;11.50;97.10;;;;;;5011845;28;20022;-76
2022/04/06 05:58:51;;;;;;;72.15;42.78;;;11.70;98.30;;;;;;5016003;28;20124;-74
2022/04/06 06:01:17;;;;;;;40.17;26.95;;;11.70;98.20;;;;;;5001275;28;20022;-74
2022/04/06 06:03:43;;;;;;;46.42;26.48;;;11.90;97.00;;;;;;5011996;28;20030;-75
2022/04/06 06:06:09;;;;;;;58.03;37.25;;;12.10;94.80;;;;;;5013478;28;20379;-75
2022/04/06 06:08:34;;;;;;;63.97;36.97;;;12.10;92.40;;;;;;5013096;28;20487;-74
2022/04/06 06:11:00;;;;;;;64.03;37.22;;;12.20;92.00;;;;;;5013140;28;20034;-73
2022/04/06 06:13:26;;;;;;;67.38;39.08;;;12.30;91.40;;;;;;5013125;28;20137;-73
2022/04/06 06:15:52;;;;;;;66.30;38.72;;;12.40;90.40;;;;;;5012765;28;20037;-75
2022/04/06 06:18:26;;;;;;;43.38;28.85;;;12.60;90.30;;;;;;5012531;28;20038;-76
2022/04/06 06:20:51;;;;;;;54.08;32.55;;;12.60;87.30;;;;;;5012858;28;20030;-76
2022/04/06 06:23:17;;;;;;;51.75;32.00;;;12.70;86.80;;;;;;5012777;28;20114;-76
2022/04/06 06:25:43;;;;;;;46.72;32.22;;;13.00;85.80;;;;;;5012592;28;20030;-75
2022/04/06 06:28:10;;;;;;;60.47;33.53;;;12.90;84.40;;;;;;5009981;28;20566;-74
2022/04/06 06:30:36;;;;;;;63.67;36.08;;;13.10;88.40;;;;;;5019207;28;20068;-76
2022/04/06 06:33:04;;;;;;;58.03;32.20;;;13.30;85.00;;;;;;5018985;28;20022;-75
2022/04/06 06:35:30;;;;;;;31.63;21.42;;;13.50;84.90;;;;;;4998201;28;20072;-76
2022/04/06 06:37:59;;;;;;;32.63;20.23;;;13.40;82.50;;;;;;5012600;28;20383;-75
2022/04/06 06:40:28;;;;;;;31.30;20.88;;;13.70;83.20;;;;;;5011431;28;20112;-75
2022/04/06 06:43:06;;;;;;;39.30;23.23;;;13.90;78.00;;;;;;5012429;28;20022;-76
2022/04/06 06:45:32;;;;;;;44.08;23.80;;;14.10;78.10;;;;;;5017023;28;20033;-75
2022/04/06 06:47:58;;;;;;;41.28;26.33;;;14.30;80.10;;;;;;5018486;28;20053;-76
2022/04/06 06:50:25;;;;;;;37.90;26.75;;;14.40;80.20;;;;;;5011364;28;20052;-75
2022/04/06 06:52:51;;;;;;;43.05;28.05;;;14.50;78.60;;;;;;5011325;28;20038;-74
2022/04/06 06:55:19;;;;;;;39.83;26.73;;;14.50;77.40;;;;;;5011335;28;20084;-75
2022/04/06 06:57:44;;;;;;;39.00;26.75;;;14.60;73.90;;;;;;5011766;28;20042;-74
2022/04/06 07:00:14;;;;;;;44.67;28.35;;;14.70;74.00;;;;;;5010800;28;20109;-75
2022/04/06 07:02:41;;;;;;;38.75;25.45;;;14.50;76.10;;;;;;4991622;28;20342;-75
2022/04/06 07:05:08;;;;;;;36.10;24.88;;;14.30;79.10;;;;;;5018913;28;20041;-75
2022/04/06 07:07:51;;;;;;;29.42;20.33;;;14.50;77.60;;;;;;5017369;28;20123;-75
2022/04/06 07:10:17;;;;;;;;;;;14.50;74.30;;;;;;5020777;28;20026;-75
2022/04/06 07:12:43;;;;;;;28.25;18.42;;;14.50;73.80;;;;;;5022433;28;19973;-76
2022/04/06 07:15:16;;;;;;;33.85;19.85;;;14.70;73.10;;;;;;5014219;28;20022;-76
2022/04/06 07:17:49;;;;;;;35.47;23.77;;;14.80;74.30;;;;;;5001530;28;20085;-76
2022/04/06 07:20:18;;;;;;;34.03;22.77;;;14.80;74.60;;;;;;5014964;28;20389;-76
2022/04/06 07:22:46;;;;;;;36.75;23.30;;;14.90;74.50;;;;;;5011236;28;20065;-76
2022/04/06 07:25:12;;;;;;;46.58;31.73;;;15.10;74.70;;;;;;5009815;28;20411;-77
2022/04/06 07:27:39;;;;;;;40.13;31.08;;;15.20;77.50;;;;;;5011768;28;20022;-76
2022/04/06 07:30:11;;;;;;;46.10;30.67;;;15.20;78.10;;;;;;5011835;28;20030;-76
2022/04/06 07:32:37;;;;;;;41.95;26.25;;;15.50;76.30;;;;;;5011580;28;20030;-76
2022/04/06 07:35:06;;;;;;;39.67;27.63;;;15.70;75.50;;;;;;4994300;28;20187;-76
2022/04/06 07:37:41;;;;;;;41.53;27.90;;;16.00;76.90;;;;;;4997551;28;20514;-74
2022/04/06 07:40:12;;;;;;;41.58;27.38;;;16.20;77.00;;;;;;5012576;28;20026;-77
2022/04/06 07:42:39;;;;;;;41.45;26.60;;;16.40;73.10;;;;;;5011338;28;20017;-76
2022/04/06 07:45:07;;;;;;;39.72;26.98;;;16.60;72.30;;;;;;5011777;28;20037;-76
2022/04/06 07:47:34;;;;;;;40.50;26.23;;;16.60;72.80;;;;;;5011432;28;20046;-77
2022/04/06 07:50:04;;;;;;;37.97;25.83;;;16.80;73.20;;;;;;5011327;28;20037;-75
2022/04/06 07:52:31;;;;;;;44.35;31.58;;;17.10;73.80;;;;;;5007166;28;20022;-75
2022/04/06 07:54:57;;;;;;;41.85;28.33;;;17.20;72.30;;;;;;5011162;28;20037;-75
2022/04/06 07:57:26;;;;;;;42.40;25.38;;;17.30;70.60;;;;;;5011255;28;20399;-76
2022/04/06 07:59:57;;;;;;;33.53;21.17;;;17.50;71.90;;;;;;5010954;28;20103;-77
2022/04/06 08:02:23;;;;;;;30.95;20.30;;;17.70;68.20;;;;;;5011165;28;20037;-77
2022/04/06 08:04:56;;;;;;;32.08;18.85;;;17.90;71.60;;;;;;5011150;28;20030;-77
2022/04/06 08:07:24;;;;;;;28.52;15.85;;;18.00;67.60;;;;;;5010448;28;20026;-75
2022/04/06 08:09:50;;;;;;;23.33;12.48;;;18.10;66.80;;;;;;5011151;28;20036;-77
2022/04/06 08:12:16;;;;;;;19.67;11.85;;;18.20;64.90;;;;;;5010849;28;20518;-75
2022/04/06 08:14:42;;;;;;;25.15;14.20;;;18.30;65.10;;;;;;5010925;28;20029;-77
2022/04/06 08:17:19;;;;;;;26.17;15.02;;;18.30;63.50;;;;;;5010503;28;20391;-73
2022/04/06 08:19:45;;;;;;;33.33;13.73;;;18.30;63.00;;;;;;5009504;28;20185;-77
2022/04/06 08:22:18;;;;;;;31.10;14.60;;;18.30;61.90;;;;;;5011688;28;20104;-76
2022/04/06 08:24:48;;;;;;;34.80;13.82;;;18.30;63.40;;;;;;5008886;28;20667;-77
2022/04/06 08:27:17;;;;;;;23.35;14.10;;;18.70;65.50;;;;;;5011877;28;20037;-76
2022/04/06 08:29:43;;;;;;;23.48;15.75;;;18.70;65.10;;;;;;5008785;28;20096;-75
2022/04/06 08:32:09;;;;;;;25.92;16.45;;;18.90;64.50;;;;;;5009877;28;20136;-76
2022/04/06 08:34:40;;;;;;;24.27;14.88;;;19.20;64.70;;;;;;5010050;28;20168;-75
2022/04/06 08:37:11;;;;;;;26.50;12.70;;;19.30;66.90;;;;;;5023843;28;20395;-77
2022/04/06 08:39:37;;;;;;;22.50;11.95;;;19.00;61.10;;;;;;5008339;28;20180;-76
2022/04/06 08:42:08;;;;;;;18.55;11.00;;;19.00;61.30;;;;;;5009010;28;20104;-76
2022/04/06 08:44:34;;;;;;;18.55;10.90;;;19.30;62.40;;;;;;5007511;28;20113;-76
2022/04/06 08:47:06;;;;;;;18.50;10.60;;;19.10;60.50;;;;;;5008040;28;20046;-69
2022/04/06 08:49:37;;;;;;;17.20;10.50;;;19.30;60.40;;;;;;5010746;28;20065;-76
2022/04/06 08:52:06;;;;;;;11.63;6.73;;;19.60;63.80;;;;;;5011792;28;20041;-76
2022/04/06 08:54:35;;;;;;;14.57;7.30;;;19.30;59.80;;;;;;5012190;28;20485;-76
2022/04/06 08:57:03;;;;;;;13.40;5.70;;;19.70;63.40;;;;;;5012673;28;20034;-74
2022/04/06 08:59:32;;;;;;;10.73;5.50;;;19.70;61.50;;;;;;5013809;28;20026;-77
2022/04/06 09:01:59;;;;;;;8.63;4.78;;;19.50;61.20;;;;;;5012188;28;20103;-73
2022/04/06 09:04:29;;;;;;;13.45;6.00;;;19.80;62.50;;;;;;5015645;28;20590;-76
2022/04/06 09:06:55;;;;;;;9.57;5.53;;;19.90;60.70;;;;;;5011773;28;20029;-76
2022/04/06 09:09:26;;;;;;;10.10;5.18;;;19.60;59.90;;;;;;5013638;28;20490;-75
2022/04/06 09:11:52;;;;;;;12.65;6.13;;;19.50;59.30;;;;;;5013546;28;20037;-74
2022/04/06 09:14:33;;;;;;;11.27;5.82;;;19.80;62.70;;;;;;5013748;28;20030;-75
2022/04/06 09:17:07;;;;;;;10.65;6.68;;;19.90;58.90;;;;;;5013556;28;20037;-75
2022/04/06 09:19:46;;;;;;;8.30;4.70;;;20.10;60.10;;;;;;5013406;28;20045;-76
2022/04/06 09:22:12;;;;;;;7.22;4.43;;;20.40;61.80;;;;;;5014003;28;20237;-76
2022/04/06 09:24:40;;;;;;;8.98;4.47;;;20.50;57.70;;;;;;5013864;28;20097;-76
2022/04/06 09:27:07;;;;;;;10.52;4.45;;;20.60;58.00;;;;;;5012710;28;20029;-76
2022/04/06 09:29:35;;;;;;;9.27;4.72;;;20.70;59.10;;;;;;4995737;28;20030;-76
2022/04/06 09:32:10;;;;;;;14.02;5.85;;;20.80;60.10;;;;;;5012755;28;20026;-76
2022/04/06 09:34:38;;;;;;;6.78;3.80;;;20.80;57.70;;;;;;5010711;28;20049;-76
2022/04/06 09:37:26;;;;;;;7.05;3.25;;;20.80;54.50;;;;;;5014628;28;20018;-75
2022/04/06 09:39:53;;;;;;;14.27;3.78;;;20.80;52.90;;;;;;5012516;28;20118;-75
2022/04/06 09:42:25;;;;;;;7.35;3.65;;;20.80;52.00;;;;;;5010529;28;20483;-76
2022/04/06 09:47:51;;;;;;;6.05;3.28;;;20.90;53.20;;;;;;5010841;28;20046;-76
2022/04/06 09:50:22;;;;;;;5.25;3.25;;;21.00;52.50;;;;;;5012416;28;20030;-76
2022/04/06 09:52:51;;;;;;;5.88;3.38;;;20.90;50.90;;;;;;5012542;28;20041;-76
2022/04/06 09:55:18;;;;;;;23.27;3.85;;;20.80;48.20;;;;;;5011242;28;20041;-74
2022/04/06 09:57:52;;;;;;;4.80;2.53;;;21.20;53.00;;;;;;5013238;28;20041;-76
2022/04/06 10:00:20;;;;;;;9.13;3.20;;;21.30;47.90;;;;;;5012290;28;20034;-76
2022/04/06 10:03:08;;;;;;;7.63;4.05;;;21.40;51.70;;;;;;4993887;28;20221;-74
2022/04/06 10:05:40;;;;;;;6.15;2.88;;;21.20;50.30;;;;;;5011528;28;20046;-76
2022/04/06 10:08:07;;;;;;;5.55;3.30;;;21.30;50.20;;;;;;5012489;28;20033;-77
2022/04/06 10:10:36;;;;;;;5.45;3.05;;;21.50;52.00;;;;;;5012425;28;20064;-77
2022/04/06 10:13:10;;;;;;;7.95;3.35;;;21.40;49.20;;;;;;5010991;28;20030;-74
2022/04/06 10:15:40;;;;;;;6.93;2.50;;;21.40;48.80;;;;;;5018299;28;20101;-76
2022/04/06 10:18:06;;;;;;;6.07;2.70;;;21.40;48.50;;;;;;4996638;28;20121;-77
2022/04/06 10:20:51;;;;;;;6.05;3.10;;;21.40;50.80;;;;;;5013092;28;20472;-76
2022/04/06 10:23:45;;;;;;;4.65;2.78;;;21.60;48.90;;;;;;5012086;28;20753;-76
2022/04/06 10:26:31;;;;;;;6.28;3.28;;;21.70;48.40;;;;;;5011057;28;20578;-77
2022/04/06 10:28:57;;;;;;;3.80;2.85;;;21.60;49.30;;;;;;5013074;28;20048;-75
2022/04/06 10:31:28;;;;;;;4.30;2.53;;;21.80;52.20;;;;;;4979029;28;20026;-77
2022/04/06 10:34:22;;;;;;;7.55;2.33;;;21.80;48.20;;;;;;5010791;28;20040;-76
2022/04/06 10:37:11;;;;;;;4.65;2.50;;;21.90;50.80;;;;;;5014060;28;20033;-77
2022/04/06 10:39:57;;;;;;;4.63;2.85;;;21.80;50.70;;;;;;5011021;28;20582;-76
2022/04/06 10:42:36;;;;;;;7.32;3.10;;;21.90;50.80;;;;;;5011899;28;20045;-68
2022/04/06 10:45:05;;;;;;;7.38;2.97;;;21.90;50.60;;;;;;5011736;28;20219;-69
2022/04/06 10:47:32;;;;;;;5.53;2.72;;;21.80;48.70;;;;;;5011377;28;20034;-73
2022/04/06 10:50:13;;;;;;;6.10;2.28;;;21.80;50.20;;;;;;5011799;28;20099;-74
2022/04/06 10:52:40;;;;;;;3.58;2.28;;;21.90;48.90;;;;;;5011562;28;20118;-73
2022/04/06 10:55:14;;;;;;;9.00;2.95;;;21.90;49.70;;;;;;5011655;28;20029;-74
2022/04/06 10:58:16;;;;;;;2.97;1.65;;;22.00;49.60;;;;;;5012223;28;20038;-72
2022/04/06 11:00:42;;;;;;;7.65;2.80;;;22.00;49.00;;;;;;5029874;28;20033;-74
2022/04/06 11:03:15;;;;;;;4.30;2.88;;;21.90;49.70;;;;;;5024824;28;20034;-74
2022/04/06 11:05:44;;;;;;;3.63;2.00;;;21.90;50.90;;;;;;5027498;28;20391;-75
2022/04/06 11:11:40;;;;;;;4.68;2.40;;;22.20;51.00;;;;;;5028948;28;20030;-73
2022/04/06 11:14:06;;;;;;;3.63;1.95;;;22.10;49.30;;;;;;4950189;28;20146;-74
2022/04/06 11:16:47;;;;;;;4.07;2.22;;;22.20;51.60;;;;;;4950279;29;20067;-77
2022/04/06 11:19:14;;;;;;;2.97;2.10;;;22.20;49.40;;;;;;4950857;29;20054;-75
2022/04/06 11:22:01;;;;;;;3.95;2.05;;;22.10;48.40;;;;;;4950878;29;20035;-75
2022/04/06 11:24:28;;;;;;;8.35;2.95;;;22.20;50.60;;;;;;4935596;29;20039;-75
2022/04/06 11:26:56;;;;;;;7.53;2.60;;;22.00;49.20;;;;;;4950642;29;20030;-76
2022/04/06 11:29:26;;;;;;;5.88;2.88;;;22.10;50.40;;;;;;4950271;29;20047;-74
2022/04/06 11:31:54;;;;;;;8.10;2.45;;;22.30;51.40;;;;;;4933960;29;20536;-76
2022/04/06 11:34:57;;;;;;;3.13;2.03;;;22.40;50.40;;;;;;4937102;29;20043;-76
2022/04/06 11:37:23;;;;;;;4.43;2.65;;;22.30;47.80;;;;;;4893538;29;20439;-76
2022/04/06 11:39:58;;;;;;;4.78;3.00;;;22.20;49.30;;;;;;4893468;29;20037;-76
2022/04/06 11:42:26;;;;;;;9.40;3.40;;;22.20;50.40;;;;;;4877454;29;20024;-76
2022/04/06 11:44:54;;;;;;;5.07;2.33;;;22.30;50.60;;;;;;4908191;29;20048;-76
2022/04/06 11:47:31;;;;;;;7.72;2.70;;;22.20;49.70;;;;;;4912347;29;20095;-75
2022/04/06 11:49:58;;;;;;;6.35;3.10;;;22.40;51.30;;;;;;4913384;28;20603;-76
2022/04/06 11:52:24;;;;;;;4.90;2.33;;;22.50;50.30;;;;;;5008812;28;20217;-77
2022/04/06 11:54:55;;;;;;;3.38;1.85;;;22.70;49.50;;;;;;4989370;28;20042;-71
2022/04/06 11:57:39;;;;;;;5.88;1.88;;;22.70;48.90;;;;;;4988826;28;20042;-73
2022/04/06 12:00:09;;;;;;;2.13;1.67;;;22.60;48.90;;;;;;4956138;28;20050;-73
2022/04/06 12:02:57;;;;;;;3.72;2.53;;;22.60;49.70;;;;;;4986882;28;20030;-72
2022/04/06 12:05:27;;;;;;;1.80;1.10;;;22.80;51.20;;;;;;4987572;28;20492;-74
2022/04/06 12:08:13;;;;;;;2.00;0.95;;;22.70;49.20;;;;;;4955229;28;20038;-74
2022/04/06 12:10:49;;;;;;;5.20;1.88;;;22.60;49.30;;;;;;4988982;28;20159;-73
2022/04/06 12:13:19;;;;;;;3.15;1.40;;;22.90;51.40;;;;;;4998347;28;20037;-75
2022/04/06 12:15:48;;;;;;;1.52;1.23;;;22.70;48.60;;;;;;5010792;28;20026;-74
2022/04/06 12:18:17;;;;;;;2.17;1.30;;;22.80;50.40;;;;;;5010452;28;20117;-75
2022/04/06 12:20:43;;;;;;;2.10;1.15;;;22.60;48.90;;;;;;5010822;28;20033;-75
2022/04/06 12:23:09;;;;;;;2.78;1.52;;;22.70;48.40;;;;;;5010965;28;20507;-75
2022/04/06 12:25:36;;;;;;;6.10;2.17;;;22.80;51.30;;;;;;5025488;28;20030;-74
2022/04/06 12:28:26;;;;;;;3.00;1.67;;;23.00;50.50;;;;;;5011071;28;20075;-74
2022/04/06 12:31:06;;;;;;;2.85;1.40;;;23.10;49.30;;;;;;5010944;28;20046;-75
2022/04/06 12:33:43;;;;;;;2.30;1.52;;;23.00;48.30;;;;;;5025618;28;20030;-75
2022/04/06 12:36:22;;;;;;;4.40;1.67;;;23.00;49.80;;;;;;5009785;28;20040;-75
2022/04/06 12:39:15;;;;;;;3.67;1.58;;;23.00;50.00;;;;;;4990073;28;20038;-75
2022/04/06 12:41:52;;;;;;;2.20;1.38;;;23.10;49.50;;;;;;4992791;28;20191;-75
2022/04/06 12:44:19;;;;;;;6.68;2.10;;;23.20;51.70;;;;;;5025037;28;20026;-74
2022/04/06 12:46:49;;;;;;;6.50;2.03;;;23.10;49.40;;;;;;5025359;28;20026;-76
2022/04/06 12:49:32;;;;;;;4.43;1.80;;;23.10;50.10;;;;;;5010430;28;20041;-74
2022/04/06 12:52:06;;;;;;;;;;;23.00;49.20;;;;;;5025665;28;20060;-74
2022/04/06 12:54:33;;;;;;;4.40;2.30;;;22.90;48.70;;;;;;5010068;28;19909;-73
2022/04/06 12:57:17;;;;;;;7.03;2.40;;;23.00;48.90;;;;;;5008544;28;20026;-74
2022/04/06 12:59:46;;;;;;;6.10;2.38;;;22.90;49.30;;;;;;5009212;28;20045;-74